Des Moines, IA

12:06 AM CST on February 11, 2016 (GMT -0600)
Witmer Park | | Change Station
CLOSE
Current Station
Personal Weather Station
Location: Des Moines, IA
Elevation: 892 ft
Nearby Weather Stations

Elev 892 ft 41.61 °N, 93.66 °W | Updated 2 seconds ago

Overcast
Overcast
14.3 °F
Feels Like 14 °F
N
0.0
Wind Variable Wind from East
Gusts 4.0 mph

Today
High -- | Low -- °F
--% Chance of Precip.
Yesterday
High -- | Low -- °F
Precip. -- in
Pressure 30.27 in
Visibility 10.0 miles
Clouds Mostly Cloudy 3700 ft
Mostly Cloudy 4800 ft
Mostly Cloudy 6500 ft
Windchill 14 °F
Dew Point 9 °F
Humidity 80%
Rainfall 0.00 in
Snow Depth Not available.
7:15 AM 5:42 PM
Waxing Crescent, 9% visible
METAR KDSM 110554Z 03007KT 10SM BKN037 BKN048 BKN065 M09/M13 A3023 RMK AO2 SLP251 4/003 60000 T10891133 11072 21089 410671100 53020
Pressure 30.27 in
Visibility 10.0 miles
Clouds Mostly Cloudy 3700 ft
Mostly Cloudy 4800 ft
Mostly Cloudy 6500 ft
Windchill 14 °F
Dew Point 9 °F
Humidity 80%
Rainfall 0.00 in
Snow Depth Not available.
7:15 AM 5:42 PM
Waxing Crescent, 9% visible
METAR KDSM 110554Z 03007KT 10SM BKN037 BKN048 BKN065 M09/M13 A3023 RMK AO2 SLP251 4/003 60000 T10891133 11072 21089 410671100 53020

10-Day Weather Forecast

Almanac

Astronomy

Feb. 11, 2016 Rise Set
Actual Time
Civil Twilight
Nautical Twilight
Astronomical Twilight
Moon
Length of Visible Light
Length of Day
Tomorrow will be .
, % of the Moon is Illuminated

Today's Extremes

State Highs State Lows

Community

WunderPhotos

Upload Photos

1,892,028 photos uploaded!

WunderBlog® & News

Nearby

Air Quality

  Air Quality AQ Index Pollutant
Not available.

Snow Depth

Station Depth Elevation

Earthquake Activity

City Distance Mag. Time & Date
Minimum magnitude displayed is 2.5.

Coastal Water Temperatures

Place Temperature

Stations

Nearby Weather Stations

Station Location Temp. Windchill Dew Point Humidity Wind Precip. Elev Updated Type
                   

Watches & Warnings

There are currently no watches in effect.